sensor_id;sensor_type;location;lat;lon;timestamp;temperature;humidity
77100;SHT31;66602;48.922;2.414;2023-05-07T00:01:42;14.14;94.40
77100;SHT31;66602;48.922;2.414;2023-05-07T00:04:08;14.11;95.03
77100;SHT31;66602;48.922;2.414;2023-05-07T00:06:34;14.16;95.10
77100;SHT31;66602;48.922;2.414;2023-05-07T00:08:59;14.13;95.14
77100;SHT31;66602;48.922;2.414;2023-05-07T00:11:26;14.11;95.27
77100;SHT31;66602;48.922;2.414;2023-05-07T00:13:52;14.16;95.20
77100;SHT31;66602;48.922;2.414;2023-05-07T00:16:17;14.17;94.98
77100;SHT31;66602;48.922;2.414;2023-05-07T00:18:43;14.14;95.23
77100;SHT31;66602;48.922;2.414;2023-05-07T00:21:08;14.16;95.36
77100;SHT31;66602;48.922;2.414;2023-05-07T00:23:34;14.16;95.43
77100;SHT31;66602;48.922;2.414;2023-05-07T00:25:59;14.13;95.54
77100;SHT31;66602;48.922;2.414;2023-05-07T00:28:25;14.14;95.64
77100;SHT31;66602;48.922;2.414;2023-05-07T00:30:50;14.13;95.59
77100;SHT31;66602;48.922;2.414;2023-05-07T00:33:16;14.14;95.52
77100;SHT31;66602;48.922;2.414;2023-05-07T00:35:42;14.13;95.37
77100;SHT31;66602;48.922;2.414;2023-05-07T00:38:07;14.10;95.52
77100;SHT31;66602;48.922;2.414;2023-05-07T00:40:33;14.09;95.61
77100;SHT31;66602;48.922;2.414;2023-05-07T00:42:58;14.07;95.62
77100;SHT31;66602;48.922;2.414;2023-05-07T00:45:27;14.07;95.64
77100;SHT31;66602;48.922;2.414;2023-05-07T00:48:00;14.06;95.62
77100;SHT31;66602;48.922;2.414;2023-05-07T00:50:27;14.10;95.39
77100;SHT31;66602;48.922;2.414;2023-05-07T00:52:52;14.13;95.44
77100;SHT31;66602;48.922;2.414;2023-05-07T00:55:18;14.14;95.04
77100;SHT31;66602;48.922;2.414;2023-05-07T00:57:44;14.14;94.44
77100;SHT31;66602;48.922;2.414;2023-05-07T01:00:11;14.13;94.23
77100;SHT31;66602;48.922;2.414;2023-05-07T01:02:40;14.07;93.99
77100;SHT31;66602;48.922;2.414;2023-05-07T01:05:08;14.09;94.12
77100;SHT31;66602;48.922;2.414;2023-05-07T01:07:35;14.06;94.17
77100;SHT31;66602;48.922;2.414;2023-05-07T01:10:02;14.07;94.20
77100;SHT31;66602;48.922;2.414;2023-05-07T01:12:28;14.04;94.06
77100;SHT31;66602;48.922;2.414;2023-05-07T01:14:55;14.00;94.19
77100;SHT31;66602;48.922;2.414;2023-05-07T01:17:20;14.00;94.44
77100;SHT31;66602;48.922;2.414;2023-05-07T01:19:46;14.00;94.56
77100;SHT31;66602;48.922;2.414;2023-05-07T01:22:14;14.01;94.51
77100;SHT31;66602;48.922;2.414;2023-05-07T01:24:41;14.03;94.50
77100;SHT31;66602;48.922;2.414;2023-05-07T01:27:07;14.04;94.48
77100;SHT31;66602;48.922;2.414;2023-05-07T01:29:32;14.01;94.38
77100;SHT31;66602;48.922;2.414;2023-05-07T01:31:59;13.99;94.56
77100;SHT31;66602;48.922;2.414;2023-05-07T01:34:27;13.96;94.93
77100;SHT31;66602;48.922;2.414;2023-05-07T01:36:55;13.94;95.06
77100;SHT31;66602;48.922;2.414;2023-05-07T01:39:27;13.93;95.21
77100;SHT31;66602;48.922;2.414;2023-05-07T01:41:56;13.94;95.44
77100;SHT31;66602;48.922;2.414;2023-05-07T01:44:22;13.96;95.50
77100;SHT31;66602;48.922;2.414;2023-05-07T01:46:48;13.94;95.58
77100;SHT31;66602;48.922;2.414;2023-05-07T01:49:15;13.94;95.67
77100;SHT31;66602;48.922;2.414;2023-05-07T01:51:41;13.96;95.72
77100;SHT31;66602;48.922;2.414;2023-05-07T01:54:06;13.91;95.82
77100;SHT31;66602;48.922;2.414;2023-05-07T01:56:33;13.90;95.95
77100;SHT31;66602;48.922;2.414;2023-05-07T01:58:59;13.91;96.12
77100;SHT31;66602;48.922;2.414;2023-05-07T02:01:24;13.94;96.07
77100;SHT31;66602;48.922;2.414;2023-05-07T02:03:50;13.94;96.15
77100;SHT31;66602;48.922;2.414;2023-05-07T02:06:15;13.96;96.29
77100;SHT31;66602;48.922;2.414;2023-05-07T02:08:41;13.94;96.32
77100;SHT31;66602;48.922;2.414;2023-05-07T02:11:06;13.93;96.31
77100;SHT31;66602;48.922;2.414;2023-05-07T02:13:33;13.93;96.29
77100;SHT31;66602;48.922;2.414;2023-05-07T02:15:59;13.90;96.31
77100;SHT31;66602;48.922;2.414;2023-05-07T02:18:25;13.91;96.30
77100;SHT31;66602;48.922;2.414;2023-05-07T02:20:50;13.89;96.42
77100;SHT31;66602;48.922;2.414;2023-05-07T02:23:16;13.90;96.57
77100;SHT31;66602;48.922;2.414;2023-05-07T02:25:41;13.90;96.58
77100;SHT31;66602;48.922;2.414;2023-05-07T02:28:07;13.91;96.53
77100;SHT31;66602;48.922;2.414;2023-05-07T02:30:32;13.91;96.51
77100;SHT31;66602;48.922;2.414;2023-05-07T02:32:58;13.91;96.55
77100;SHT31;66602;48.922;2.414;2023-05-07T02:35:26;13.93;96.60
77100;SHT31;66602;48.922;2.414;2023-05-07T02:37:52;13.94;96.63
77100;SHT31;66602;48.922;2.414;2023-05-07T02:40:17;13.96;96.67
77100;SHT31;66602;48.922;2.414;2023-05-07T02:42:43;13.99;96.73
77100;SHT31;66602;48.922;2.414;2023-05-07T02:45:09;14.01;96.67
77100;SHT31;66602;48.922;2.414;2023-05-07T02:47:34;14.00;96.72
77100;SHT31;66602;48.922;2.414;2023-05-07T02:50:00;14.00;96.82
77100;SHT31;66602;48.922;2.414;2023-05-07T02:52:25;14.01;96.91
77100;SHT31;66602;48.922;2.414;2023-05-07T02:54:51;14.04;96.89
77100;SHT31;66602;48.922;2.414;2023-05-07T02:57:16;14.07;96.83
77100;SHT31;66602;48.922;2.414;2023-05-07T02:59:42;14.09;96.72
77100;SHT31;66602;48.922;2.414;2023-05-07T03:02:08;14.04;96.71
77100;SHT31;66602;48.922;2.414;2023-05-07T03:04:33;14.06;96.70
77100;SHT31;66602;48.922;2.414;2023-05-07T03:06:59;14.06;96.82
77100;SHT31;66602;48.922;2.414;2023-05-07T03:09:24;14.07;97.00
77100;SHT31;66602;48.922;2.414;2023-05-07T03:11:50;14.06;97.04
77100;SHT31;66602;48.922;2.414;2023-05-07T03:14:16;14.06;97.12
77100;SHT31;66602;48.922;2.414;2023-05-07T03:16:41;14.06;97.14
77100;SHT31;66602;48.922;2.414;2023-05-07T03:19:07;14.04;97.05
77100;SHT31;66602;48.922;2.414;2023-05-07T03:21:32;14.03;97.01
77100;SHT31;66602;48.922;2.414;2023-05-07T03:23:59;14.17;97.32
77100;SHT31;66602;48.922;2.414;2023-05-07T03:26:25;14.20;97.28
77100;SHT31;66602;48.922;2.414;2023-05-07T03:28:51;14.20;97.26
77100;SHT31;66602;48.922;2.414;2023-05-07T03:31:17;14.11;97.31
77100;SHT31;66602;48.922;2.414;2023-05-07T03:33:53;14.16;97.41
77100;SHT31;66602;48.922;2.414;2023-05-07T03:36:19;14.16;97.52
77100;SHT31;66602;48.922;2.414;2023-05-07T03:38:45;14.17;97.50
77100;SHT31;66602;48.922;2.414;2023-05-07T03:41:11;14.18;97.56
77100;SHT31;66602;48.922;2.414;2023-05-07T03:43:37;14.18;97.55
77100;SHT31;66602;48.922;2.414;2023-05-07T03:46:02;14.18;97.60
77100;SHT31;66602;48.922;2.414;2023-05-07T03:48:27;14.17;97.59
77100;SHT31;66602;48.922;2.414;2023-05-07T03:50:53;14.17;97.64
77100;SHT31;66602;48.922;2.414;2023-05-07T03:53:18;14.16;97.69
77100;SHT31;66602;48.922;2.414;2023-05-07T03:55:44;14.18;97.67
77100;SHT31;66602;48.922;2.414;2023-05-07T03:58:09;14.18;97.65
77100;SHT31;66602;48.922;2.414;2023-05-07T04:00:35;14.17;97.63
77100;SHT31;66602;48.922;2.414;2023-05-07T04:03:04;14.18;97.54
77100;SHT31;66602;48.922;2.414;2023-05-07T04:05:30;14.18;97.60
77100;SHT31;66602;48.922;2.414;2023-05-07T04:07:57;14.20;97.60
77100;SHT31;66602;48.922;2.414;2023-05-07T04:10:22;14.20;97.62
77100;SHT31;66602;48.922;2.414;2023-05-07T04:12:48;14.27;97.58
77100;SHT31;66602;48.922;2.414;2023-05-07T04:15:14;14.32;97.59
77100;SHT31;66602;48.922;2.414;2023-05-07T04:17:39;14.30;97.52
77100;SHT31;66602;48.922;2.414;2023-05-07T04:20:09;14.30;97.59
77100;SHT31;66602;48.922;2.414;2023-05-07T04:22:36;14.25;97.58
77100;SHT31;66602;48.922;2.414;2023-05-07T04:25:01;14.25;97.54
77100;SHT31;66602;48.922;2.414;2023-05-07T04:27:27;14.22;97.56
77100;SHT31;66602;48.922;2.414;2023-05-07T04:29:53;14.22;97.65
77100;SHT31;66602;48.922;2.414;2023-05-07T04:32:21;14.21;97.65
77100;SHT31;66602;48.922;2.414;2023-05-07T04:34:47;14.18;97.68
77100;SHT31;66602;48.922;2.414;2023-05-07T04:37:12;14.21;97.67
77100;SHT31;66602;48.922;2.414;2023-05-07T04:39:37;14.17;97.58
77100;SHT31;66602;48.922;2.414;2023-05-07T04:42:03;14.18;97.54
77100;SHT31;66602;48.922;2.414;2023-05-07T04:44:28;14.17;97.56
77100;SHT31;66602;48.922;2.414;2023-05-07T04:46:56;14.16;97.51
77100;SHT31;66602;48.922;2.414;2023-05-07T04:49:21;14.17;97.56
77100;SHT31;66602;48.922;2.414;2023-05-07T04:51:47;14.16;97.57
77100;SHT31;66602;48.922;2.414;2023-05-07T04:54:12;14.13;97.65
77100;SHT31;66602;48.922;2.414;2023-05-07T04:56:38;14.14;97.70
77100;SHT31;66602;48.922;2.414;2023-05-07T04:59:03;14.16;97.73
77100;SHT31;66602;48.922;2.414;2023-05-07T05:01:29;14.17;97.73
77100;SHT31;66602;48.922;2.414;2023-05-07T05:03:54;14.20;97.69
77100;SHT31;66602;48.922;2.414;2023-05-07T05:06:20;14.21;97.72
77100;SHT31;66602;48.922;2.414;2023-05-07T05:08:45;14.22;97.77
77100;SHT31;66602;48.922;2.414;2023-05-07T05:11:10;14.22;97.73
77100;SHT31;66602;48.922;2.414;2023-05-07T05:13:36;14.28;97.74
77100;SHT31;66602;48.922;2.414;2023-05-07T05:16:01;14.30;97.81
77100;SHT31;66602;48.922;2.414;2023-05-07T05:18:27;14.27;97.72
77100;SHT31;66602;48.922;2.414;2023-05-07T05:20:52;14.24;97.72
77100;SHT31;66602;48.922;2.414;2023-05-07T05:23:18;14.24;97.68
77100;SHT31;66602;48.922;2.414;2023-05-07T05:25:44;14.17;97.58
77100;SHT31;66602;48.922;2.414;2023-05-07T05:28:09;14.14;97.56
77100;SHT31;66602;48.922;2.414;2023-05-07T05:30:35;14.13;97.60
77100;SHT31;66602;48.922;2.414;2023-05-07T05:33:00;14.17;97.63
77100;SHT31;66602;48.922;2.414;2023-05-07T05:35:26;14.18;97.70
77100;SHT31;66602;48.922;2.414;2023-05-07T05:37:51;14.17;97.61
77100;SHT31;66602;48.922;2.414;2023-05-07T05:40:17;14.17;97.63
77100;SHT31;66602;48.922;2.414;2023-05-07T05:42:42;14.13;97.56
77100;SHT31;66602;48.922;2.414;2023-05-07T05:45:08;14.17;97.63
77100;SHT31;66602;48.922;2.414;2023-05-07T05:47:34;14.17;97.62
77100;SHT31;66602;48.922;2.414;2023-05-07T05:49:59;14.17;97.64
77100;SHT31;66602;48.922;2.414;2023-05-07T05:52:25;14.17;97.56
77100;SHT31;66602;48.922;2.414;2023-05-07T05:54:50;14.17;97.51
77100;SHT31;66602;48.922;2.414;2023-05-07T05:57:16;14.18;97.53
77100;SHT31;66602;48.922;2.414;2023-05-07T05:59:42;14.22;97.47
77100;SHT31;66602;48.922;2.414;2023-05-07T06:02:07;14.28;97.46
77100;SHT31;66602;48.922;2.414;2023-05-07T06:04:33;14.31;97.43
77100;SHT31;66602;48.922;2.414;2023-05-07T06:06:58;14.37;97.43
77100;SHT31;66602;48.922;2.414;2023-05-07T06:09:24;14.37;97.34
77100;SHT31;66602;48.922;2.414;2023-05-07T06:11:49;14.42;97.25
77100;SHT31;66602;48.922;2.414;2023-05-07T06:14:15;14.46;97.21
77100;SHT31;66602;48.922;2.414;2023-05-07T06:16:40;14.52;97.22
77100;SHT31;66602;48.922;2.414;2023-05-07T06:19:07;14.55;96.99
77100;SHT31;66602;48.922;2.414;2023-05-07T06:21:32;14.52;96.80
77100;SHT31;66602;48.922;2.414;2023-05-07T06:23:58;14.55;96.83
77100;SHT31;66602;48.922;2.414;2023-05-07T06:26:23;14.61;96.83
77100;SHT31;66602;48.922;2.414;2023-05-07T06:28:48;14.65;96.87
77100;SHT31;66602;48.922;2.414;2023-05-07T06:31:19;14.71;96.70
77100;SHT31;66602;48.922;2.414;2023-05-07T06:33:48;14.76;96.70
77100;SHT31;66602;48.922;2.414;2023-05-07T06:36:14;14.80;96.63
77100;SHT31;66602;48.922;2.414;2023-05-07T06:38:39;14.85;96.41
77100;SHT31;66602;48.922;2.414;2023-05-07T06:41:06;14.89;96.25
77100;SHT31;66602;48.922;2.414;2023-05-07T06:43:32;14.96;96.05
77100;SHT31;66602;48.922;2.414;2023-05-07T06:45:57;15.04;95.98
77100;SHT31;66602;48.922;2.414;2023-05-07T06:48:23;15.14;95.74
77100;SHT31;66602;48.922;2.414;2023-05-07T06:50:48;15.26;95.63
77100;SHT31;66602;48.922;2.414;2023-05-07T06:53:14;15.40;95.47
77100;SHT31;66602;48.922;2.414;2023-05-07T06:55:39;15.53;95.34
77100;SHT31;66602;48.922;2.414;2023-05-07T06:58:05;15.50;94.47
77100;SHT31;66602;48.922;2.414;2023-05-07T07:00:31;15.50;94.51
77100;SHT31;66602;48.922;2.414;2023-05-07T07:02:56;15.61;94.70
77100;SHT31;66602;48.922;2.414;2023-05-07T07:05:22;15.68;94.57
77100;SHT31;66602;48.922;2.414;2023-05-07T07:07:48;15.74;93.97
77100;SHT31;66602;48.922;2.414;2023-05-07T07:10:21;15.87;93.91
77100;SHT31;66602;48.922;2.414;2023-05-07T07:12:47;15.88;92.91
77100;SHT31;66602;48.922;2.414;2023-05-07T07:15:13;15.91;92.91
77100;SHT31;66602;48.922;2.414;2023-05-07T07:17:39;15.87;92.43
77100;SHT31;66602;48.922;2.414;2023-05-07T07:20:05;15.92;92.81
77100;SHT31;66602;48.922;2.414;2023-05-07T07:22:31;15.97;93.16
77100;SHT31;66602;48.922;2.414;2023-05-07T07:24:56;16.01;92.64
77100;SHT31;66602;48.922;2.414;2023-05-07T07:27:22;15.85;90.55
77100;SHT31;66602;48.922;2.414;2023-05-07T07:29:47;15.70;90.64
77100;SHT31;66602;48.922;2.414;2023-05-07T07:32:13;15.65;90.94
77100;SHT31;66602;48.922;2.414;2023-05-07T07:34:38;15.55;91.19
77100;SHT31;66602;48.922;2.414;2023-05-07T07:37:04;15.46;90.63
77100;SHT31;66602;48.922;2.414;2023-05-07T07:39:34;15.39;91.72
77100;SHT31;66602;48.922;2.414;2023-05-07T07:42:00;15.31;91.30
77100;SHT31;66602;48.922;2.414;2023-05-07T07:44:25;15.33;92.45
77100;SHT31;66602;48.922;2.414;2023-05-07T07:46:51;15.34;92.88
77100;SHT31;66602;48.922;2.414;2023-05-07T07:49:16;15.37;92.91
77100;SHT31;66602;48.922;2.414;2023-05-07T07:51:42;15.30;92.55
77100;SHT31;66602;48.922;2.414;2023-05-07T07:54:08;15.26;92.50
77100;SHT31;66602;48.922;2.414;2023-05-07T07:56:34;15.36;92.64
77100;SHT31;66602;48.922;2.414;2023-05-07T07:59:00;15.33;91.01
77100;SHT31;66602;48.922;2.414;2023-05-07T08:01:25;15.37;90.69
77100;SHT31;66602;48.922;2.414;2023-05-07T08:03:51;15.44;90.55
77100;SHT31;66602;48.922;2.414;2023-05-07T08:06:17;15.51;89.89
77100;SHT31;66602;48.922;2.414;2023-05-07T08:08:42;15.50;89.03
77100;SHT31;66602;48.922;2.414;2023-05-07T08:11:08;15.48;90.21
77100;SHT31;66602;48.922;2.414;2023-05-07T08:13:33;15.53;91.20
77100;SHT31;66602;48.922;2.414;2023-05-07T08:15:59;15.54;91.14
77100;SHT31;66602;48.922;2.414;2023-05-07T08:18:25;15.53;91.34
77100;SHT31;66602;48.922;2.414;2023-05-07T08:20:50;15.60;91.60
77100;SHT31;66602;48.922;2.414;2023-05-07T08:23:16;15.70;91.78
77100;SHT31;66602;48.922;2.414;2023-05-07T08:25:41;15.70;90.66
77100;SHT31;66602;48.922;2.414;2023-05-07T08:28:08;15.61;90.60
77100;SHT31;66602;48.922;2.414;2023-05-07T08:30:33;15.58;90.42
77100;SHT31;66602;48.922;2.414;2023-05-07T08:33:00;15.60;90.38
77100;SHT31;66602;48.922;2.414;2023-05-07T08:35:25;15.62;90.39
77100;SHT31;66602;48.922;2.414;2023-05-07T08:37:52;15.61;89.65
77100;SHT31;66602;48.922;2.414;2023-05-07T08:40:18;15.64;90.34
77100;SHT31;66602;48.922;2.414;2023-05-07T08:42:44;15.70;90.03
77100;SHT31;66602;48.922;2.414;2023-05-07T08:45:10;15.64;89.44
77100;SHT31;66602;48.922;2.414;2023-05-07T08:47:43;15.64;88.39
77100;SHT31;66602;48.922;2.414;2023-05-07T08:50:11;15.75;89.57
77100;SHT31;66602;48.922;2.414;2023-05-07T08:52:37;15.97;89.69
77100;SHT31;66602;48.922;2.414;2023-05-07T08:55:03;16.26;90.30
77100;SHT31;66602;48.922;2.414;2023-05-07T08:57:28;16.39;90.53
77100;SHT31;66602;48.922;2.414;2023-05-07T08:59:54;16.57;90.11
77100;SHT31;66602;48.922;2.414;2023-05-07T09:02:20;16.59;89.30
77100;SHT31;66602;48.922;2.414;2023-05-07T09:04:46;16.42;87.82
77100;SHT31;66602;48.922;2.414;2023-05-07T09:07:11;16.25;87.23
77100;SHT31;66602;48.922;2.414;2023-05-07T09:09:37;16.25;87.96
77100;SHT31;66602;48.922;2.414;2023-05-07T09:12:03;16.06;87.90
77100;SHT31;66602;48.922;2.414;2023-05-07T09:14:29;15.91;88.37
77100;SHT31;66602;48.922;2.414;2023-05-07T09:16:56;15.75;88.24
77100;SHT31;66602;48.922;2.414;2023-05-07T09:19:25;15.70;89.04
77100;SHT31;66602;48.922;2.414;2023-05-07T09:22:01;15.65;89.93
77100;SHT31;66602;48.922;2.414;2023-05-07T09:24:27;15.71;90.80
77100;SHT31;66602;48.922;2.414;2023-05-07T09:26:57;15.87;90.89
77100;SHT31;66602;48.922;2.414;2023-05-07T09:29:23;16.08;90.93
77100;SHT31;66602;48.922;2.414;2023-05-07T09:31:48;16.16;88.87
77100;SHT31;66602;48.922;2.414;2023-05-07T09:34:14;16.06;87.06
77100;SHT31;66602;48.922;2.414;2023-05-07T09:36:39;16.01;87.68
77100;SHT31;66602;48.922;2.414;2023-05-07T09:39:05;16.13;88.37
77100;SHT31;66602;48.922;2.414;2023-05-07T09:41:30;16.49;89.21
77100;SHT31;66602;48.922;2.414;2023-05-07T09:43:59;16.52;86.89
77100;SHT31;66602;48.922;2.414;2023-05-07T09:46:29;16.56;88.24
77100;SHT31;66602;48.922;2.414;2023-05-07T09:48:57;16.66;88.22
77100;SHT31;66602;48.922;2.414;2023-05-07T09:51:33;16.69;88.04
77100;SHT31;66602;48.922;2.414;2023-05-07T09:54:02;16.69;88.67
77100;SHT31;66602;48.922;2.414;2023-05-07T09:56:29;16.61;88.08
77100;SHT31;66602;48.922;2.414;2023-05-07T09:59:00;16.61;89.01
77100;SHT31;66602;48.922;2.414;2023-05-07T10:01:27;16.69;89.50
77100;SHT31;66602;48.922;2.414;2023-05-07T10:03:53;16.91;89.78
77100;SHT31;66602;48.922;2.414;2023-05-07T10:06:20;17.00;88.96
77100;SHT31;66602;48.922;2.414;2023-05-07T10:08:46;17.07;88.44
77100;SHT31;66602;48.922;2.414;2023-05-07T10:11:12;17.15;88.10
77100;SHT31;66602;48.922;2.414;2023-05-07T10:13:37;17.10;87.71
77100;SHT31;66602;48.922;2.414;2023-05-07T10:16:04;17.12;88.31
77100;SHT31;66602;48.922;2.414;2023-05-07T10:18:31;17.14;89.20
77100;SHT31;66602;48.922;2.414;2023-05-07T10:21:08;17.08;88.54
77100;SHT31;66602;48.922;2.414;2023-05-07T10:23:36;16.95;89.40
77100;SHT31;66602;48.922;2.414;2023-05-07T10:26:05;16.81;89.20
77100;SHT31;66602;48.922;2.414;2023-05-07T10:28:38;16.84;89.62
77100;SHT31;66602;48.922;2.414;2023-05-07T10:31:18;16.84;88.12
77100;SHT31;66602;48.922;2.414;2023-05-07T10:33:48;16.81;88.67
77100;SHT31;66602;48.922;2.414;2023-05-07T10:36:17;16.76;88.39
77100;SHT31;66602;48.922;2.414;2023-05-07T10:38:43;16.78;88.38
77100;SHT31;66602;48.922;2.414;2023-05-07T10:41:09;16.91;89.38
77100;SHT31;66602;48.922;2.414;2023-05-07T10:43:42;16.97;88.44
77100;SHT31;66602;48.922;2.414;2023-05-07T10:46:19;16.94;86.77
77100;SHT31;66602;48.922;2.414;2023-05-07T10:51:26;16.98;86.66
77100;SHT31;66602;48.922;2.414;2023-05-07T10:56:39;16.95;85.93
77100;SHT31;66602;48.922;2.414;2023-05-07T11:01:54;17.15;85.81
77100;SHT31;66602;48.922;2.414;2023-05-07T11:04:20;17.45;86.58
77100;SHT31;66602;48.922;2.414;2023-05-07T11:15:14;23.16;64.40
77100;SHT31;66602;48.922;2.414;2023-05-07T11:17:57;23.20;65.74
77100;SHT31;66602;48.922;2.414;2023-05-07T11:20:57;24.18;65.56
77100;SHT31;66602;48.922;2.414;2023-05-07T11:28:29;25.88;59.08
77100;SHT31;66602;48.922;2.414;2023-05-07T11:30:56;27.63;55.46
77100;SHT31;66602;48.922;2.414;2023-05-07T11:33:22;28.14;50.03
77100;SHT31;66602;48.922;2.414;2023-05-07T11:35:51;28.66;53.41
77100;SHT31;66602;48.922;2.414;2023-05-07T11:38:18;29.12;46.61
77100;SHT31;66602;48.922;2.414;2023-05-07T11:40:50;29.35;49.54
77100;SHT31;66602;48.922;2.414;2023-05-07T11:43:16;28.33;49.67
77100;SHT31;66602;48.922;2.414;2023-05-07T11:45:41;26.20;54.82
77100;SHT31;66602;48.922;2.414;2023-05-07T11:48:07;24.43;57.21
77100;SHT31;66602;48.922;2.414;2023-05-07T11:50:32;23.39;60.85
77100;SHT31;66602;48.922;2.414;2023-05-07T11:52:58;22.34;63.10
77100;SHT31;66602;48.922;2.414;2023-05-07T11:55:24;21.42;67.51
77100;SHT31;66602;48.922;2.414;2023-05-07T11:57:50;20.98;71.87
77100;SHT31;66602;48.922;2.414;2023-05-07T12:00:16;20.77;71.39
77100;SHT31;66602;48.922;2.414;2023-05-07T12:02:42;20.49;68.56
77100;SHT31;66602;48.922;2.414;2023-05-07T12:05:08;20.19;71.33
77100;SHT31;66602;48.922;2.414;2023-05-07T12:07:34;19.79;71.16
77100;SHT31;66602;48.922;2.414;2023-05-07T12:10:04;19.50;72.73
77100;SHT31;66602;48.922;2.414;2023-05-07T12:12:29;19.13;74.94
77100;SHT31;66602;48.922;2.414;2023-05-07T12:14:55;18.75;76.68
77100;SHT31;66602;48.922;2.414;2023-05-07T12:17:20;18.40;77.17
77100;SHT31;66602;48.922;2.414;2023-05-07T12:19:46;18.14;79.28
77100;SHT31;66602;48.922;2.414;2023-05-07T12:22:12;17.93;78.16
77100;SHT31;66602;48.922;2.414;2023-05-07T12:24:47;17.77;80.37
77100;SHT31;66602;48.922;2.414;2023-05-07T12:27:13;17.65;80.26
77100;SHT31;66602;48.922;2.414;2023-05-07T12:29:39;17.49;82.29
77100;SHT31;66602;48.922;2.414;2023-05-07T12:32:06;17.38;81.68
77100;SHT31;66602;48.922;2.414;2023-05-07T12:34:32;17.27;82.06
77100;SHT31;66602;48.922;2.414;2023-05-07T12:37:01;17.17;83.54
77100;SHT31;66602;48.922;2.414;2023-05-07T12:39:28;17.03;84.15
77100;SHT31;66602;48.922;2.414;2023-05-07T12:41:57;16.88;84.25
77100;SHT31;66602;48.922;2.414;2023-05-07T12:44:31;16.70;84.53
77100;SHT31;66602;48.922;2.414;2023-05-07T12:46:56;16.66;85.01
77100;SHT31;66602;48.922;2.414;2023-05-07T12:49:23;16.61;84.95
77100;SHT31;66602;48.922;2.414;2023-05-07T12:51:50;16.59;84.98
77100;SHT31;66602;48.922;2.414;2023-05-07T12:54:33;16.71;85.78
77100;SHT31;66602;48.922;2.414;2023-05-07T12:57:08;16.85;84.44
77100;SHT31;66602;48.922;2.414;2023-05-07T12:59:36;16.98;84.62
77100;SHT31;66602;48.922;2.414;2023-05-07T13:02:02;17.14;84.41
77100;SHT31;66602;48.922;2.414;2023-05-07T13:04:27;17.29;84.31
77100;SHT31;66602;48.922;2.414;2023-05-07T13:06:53;17.45;83.45
77100;SHT31;66602;48.922;2.414;2023-05-07T13:09:18;17.62;82.77
77100;SHT31;66602;48.922;2.414;2023-05-07T13:11:44;17.73;81.84
77100;SHT31;66602;48.922;2.414;2023-05-07T13:14:09;17.96;82.36
77100;SHT31;66602;48.922;2.414;2023-05-07T13:16:35;18.13;79.94
77100;SHT31;66602;48.922;2.414;2023-05-07T13:19:00;18.33;79.64
77100;SHT31;66602;48.922;2.414;2023-05-07T13:21:26;18.57;79.53
77100;SHT31;66602;48.922;2.414;2023-05-07T13:23:52;18.84;77.33
77100;SHT31;66602;48.922;2.414;2023-05-07T13:26:17;19.02;76.95
77100;SHT31;66602;48.922;2.414;2023-05-07T13:28:43;19.16;76.78
77100;SHT31;66602;48.922;2.414;2023-05-07T13:31:09;19.27;76.24
77100;SHT31;66602;48.922;2.414;2023-05-07T13:33:34;19.30;76.11
77100;SHT31;66602;48.922;2.414;2023-05-07T13:36:00;19.16;76.44
77100;SHT31;66602;48.922;2.414;2023-05-07T13:38:26;18.86;78.17
77100;SHT31;66602;48.922;2.414;2023-05-07T13:40:51;18.59;79.89
77100;SHT31;66602;48.922;2.414;2023-05-07T13:43:17;18.23;82.14
77100;SHT31;66602;48.922;2.414;2023-05-07T13:45:44;17.90;83.05
77100;SHT31;66602;48.922;2.414;2023-05-07T13:48:09;17.58;83.92
77100;SHT31;66602;48.922;2.414;2023-05-07T13:50:35;17.14;86.56
77100;SHT31;66602;48.922;2.414;2023-05-07T13:53:00;16.64;88.88
77100;SHT31;66602;48.922;2.414;2023-05-07T13:55:28;16.28;90.10
77100;SHT31;66602;48.922;2.414;2023-05-07T13:57:57;16.05;91.06
77100;SHT31;66602;48.922;2.414;2023-05-07T14:00:24;15.89;92.44
77100;SHT31;66602;48.922;2.414;2023-05-07T14:02:50;15.78;92.55
77100;SHT31;66602;48.922;2.414;2023-05-07T14:05:16;15.55;91.50
77100;SHT31;66602;48.922;2.414;2023-05-07T14:07:41;15.51;92.06
77100;SHT31;66602;48.922;2.414;2023-05-07T14:10:07;15.60;92.26
77100;SHT31;66602;48.922;2.414;2023-05-07T14:12:33;15.75;91.56
77100;SHT31;66602;48.922;2.414;2023-05-07T14:14:58;15.84;90.61
77100;SHT31;66602;48.922;2.414;2023-05-07T14:17:24;16.15;91.26
77100;SHT31;66602;48.922;2.414;2023-05-07T14:19:51;16.55;91.42
77100;SHT31;66602;48.922;2.414;2023-05-07T14:22:20;16.91;90.54
77100;SHT31;66602;48.922;2.414;2023-05-07T14:24:45;17.35;89.88
77100;SHT31;66602;48.922;2.414;2023-05-07T14:27:11;18.01;88.46
77100;SHT31;66602;48.922;2.414;2023-05-07T14:29:36;19.40;84.47
77100;SHT31;66602;48.922;2.414;2023-05-07T14:32:02;20.55;78.33
77100;SHT31;66602;48.922;2.414;2023-05-07T14:34:28;21.30;76.76
77100;SHT31;66602;48.922;2.414;2023-05-07T14:36:54;23.05;70.68
77100;SHT31;66602;48.922;2.414;2023-05-07T14:39:20;23.46;69.38
77100;SHT31;66602;48.922;2.414;2023-05-07T14:41:47;22.58;68.10
77100;SHT31;66602;48.922;2.414;2023-05-07T14:44:12;21.62;69.94
77100;SHT31;66602;48.922;2.414;2023-05-07T14:46:38;21.51;73.12
77100;SHT31;66602;48.922;2.414;2023-05-07T14:49:03;22.50;69.66
77100;SHT31;66602;48.922;2.414;2023-05-07T14:51:29;22.61;70.58
77100;SHT31;66602;48.922;2.414;2023-05-07T14:53:55;21.72;70.75
77100;SHT31;66602;48.922;2.414;2023-05-07T14:56:21;20.21;75.20
77100;SHT31;66602;48.922;2.414;2023-05-07T14:58:47;19.17;77.46
77100;SHT31;66602;48.922;2.414;2023-05-07T15:01:13;18.71;79.94
77100;SHT31;66602;48.922;2.414;2023-05-07T15:03:39;18.36;81.81
77100;SHT31;66602;48.922;2.414;2023-05-07T15:06:05;18.00;83.28
77100;SHT31;66602;48.922;2.414;2023-05-07T15:08:30;17.72;86.15
77100;SHT31;66602;48.922;2.414;2023-05-07T15:10:56;17.19;84.65
77100;SHT31;66602;48.922;2.414;2023-05-07T15:13:21;16.61;86.12
77100;SHT31;66602;48.922;2.414;2023-05-07T15:15:47;16.15;87.46
77100;SHT31;66602;48.922;2.414;2023-05-07T15:18:14;15.82;88.82
77100;SHT31;66602;48.922;2.414;2023-05-07T15:20:40;15.61;89.91
77100;SHT31;66602;48.922;2.414;2023-05-07T15:23:06;15.50;91.08
77100;SHT31;66602;48.922;2.414;2023-05-07T15:25:35;15.44;91.82
77100;SHT31;66602;48.922;2.414;2023-05-07T15:28:01;15.40;92.18
77100;SHT31;66602;48.922;2.414;2023-05-07T15:30:26;15.40;92.67
77100;SHT31;66602;48.922;2.414;2023-05-07T15:32:52;15.39;92.65
77100;SHT31;66602;48.922;2.414;2023-05-07T15:35:18;15.36;92.72
77100;SHT31;66602;48.922;2.414;2023-05-07T15:37:47;15.40;93.02
77100;SHT31;66602;48.922;2.414;2023-05-07T15:40:14;15.40;93.04
77100;SHT31;66602;48.922;2.414;2023-05-07T15:42:40;15.40;93.14
77100;SHT31;66602;48.922;2.414;2023-05-07T15:45:06;15.43;93.24
77100;SHT31;66602;48.922;2.414;2023-05-07T15:47:33;15.43;93.19